createdAt,value
2019-05-19T00:01:58.922Z,11.10
2019-05-19T00:04:27.296Z,12.80
2019-05-19T00:06:55.716Z,12.83
2019-05-19T00:09:24.097Z,13.20
2019-05-19T00:11:52.491Z,16.23
2019-05-19T00:14:20.869Z,11.50
2019-05-19T00:16:49.274Z,13.93
2019-05-19T00:19:26.375Z,15.60
2019-05-19T00:21:47.748Z,13.10
2019-05-19T00:24:16.175Z,13.43
2019-05-19T00:26:44.527Z,16.13
2019-05-19T00:29:12.908Z,14.83
2019-05-19T00:31:41.337Z,13.07
2019-05-19T00:34:09.718Z,12.97
2019-05-19T00:36:38.088Z,15.07
2019-05-19T00:39:06.629Z,15.23
2019-05-19T00:41:35.022Z,13.37
2019-05-19T00:44:03.416Z,14.83
2019-05-19T00:46:31.793Z,15.40
2019-05-19T00:49:00.204Z,18.87
2019-05-19T00:51:28.581Z,14.27
2019-05-19T00:53:56.963Z,16.80
2019-05-19T00:56:25.347Z,15.30
2019-05-19T00:58:54.043Z,16.40
2019-05-19T01:01:22.410Z,18.30
2019-05-19T01:03:50.803Z,13.57
2019-05-19T01:06:19.243Z,15.17
2019-05-19T01:08:47.698Z,17.40
2019-05-19T01:11:16.077Z,20.10
2019-05-19T01:13:44.544Z,14.63
2019-05-19T01:16:12.935Z,15.73
2019-05-19T01:18:41.320Z,14.27
2019-05-19T01:21:09.722Z,18.20
2019-05-19T01:23:38.113Z,15.03
2019-05-19T01:26:06.508Z,16.97
2019-05-19T01:28:34.888Z,17.47
2019-05-19T01:31:03.323Z,15.60
2019-05-19T01:33:31.893Z,18.07
2019-05-19T01:36:00.863Z,20.07
2019-05-19T01:38:29.256Z,16.87
2019-05-19T01:40:57.639Z,20.83
2019-05-19T01:43:26.030Z,17.33
2019-05-19T01:45:54.451Z,17.53
2019-05-19T01:48:22.832Z,20.27
2019-05-19T01:50:51.223Z,19.90
2019-05-19T01:53:19.627Z,16.17
2019-05-19T01:55:48.030Z,21.07
2019-05-19T01:58:16.410Z,18.33
2019-05-19T02:00:44.810Z,17.10
2019-05-19T02:03:13.220Z,16.90
2019-05-19T02:05:41.619Z,18.13
2019-05-19T02:08:10.001Z,21.73
2019-05-19T02:10:38.390Z,19.30
2019-05-19T02:13:06.780Z,15.37
2019-05-19T02:15:35.201Z,16.50
2019-05-19T02:18:03.602Z,16.90
2019-05-19T02:20:33.585Z,17.10
2019-05-19T02:23:02.037Z,18.60
2019-05-19T02:25:30.400Z,17.30
2019-05-19T02:27:58.802Z,18.97
2019-05-19T02:30:27.193Z,24.60
2019-05-19T02:32:55.589Z,15.83
2019-05-19T02:35:23.969Z,21.73
2019-05-19T02:37:52.385Z,17.07
2019-05-19T02:40:20.771Z,16.00
2019-05-19T02:42:49.630Z,22.27
2019-05-19T02:45:18.057Z,20.87
2019-05-19T02:47:46.429Z,15.13
2019-05-19T02:50:14.811Z,19.90
2019-05-19T02:52:44.412Z,13.87
2019-05-19T02:55:12.795Z,17.17
2019-05-19T02:57:41.346Z,13.17
2019-05-19T03:00:10.076Z,15.13
2019-05-19T03:02:38.449Z,13.97
2019-05-19T03:05:06.883Z,15.97
2019-05-19T03:07:35.262Z,15.63
2019-05-19T03:10:04.571Z,18.23
2019-05-19T03:12:32.956Z,13.37
2019-05-19T03:15:01.386Z,13.23
2019-05-19T03:17:29.784Z,14.07
2019-05-19T03:19:58.155Z,10.27
2019-05-19T03:22:26.578Z,15.83
2019-05-19T03:24:54.944Z,11.13
2019-05-19T03:27:23.324Z,11.23
2019-05-19T03:29:56.193Z,14.23
2019-05-19T03:32:26.224Z,20.93
2019-05-19T03:34:54.606Z,15.70
2019-05-19T03:37:23.000Z,16.10
2019-05-19T03:39:51.414Z,16.37
2019-05-19T03:42:19.789Z,18.90
2019-05-19T03:44:48.186Z,17.17
2019-05-19T03:47:16.611Z,16.23
2019-05-19T03:49:44.993Z,19.27
2019-05-19T03:52:13.359Z,14.97
2019-05-19T03:54:41.771Z,15.00
2019-05-19T03:57:10.211Z,18.03
2019-05-19T03:59:38.586Z,20.60
2019-05-19T04:02:06.985Z,19.70
2019-05-19T04:04:35.366Z,19.47
2019-05-19T04:07:03.750Z,19.87
2019-05-19T04:09:32.161Z,21.97
2019-05-19T04:12:00.542Z,15.33
2019-05-19T04:14:28.940Z,20.27
2019-05-19T04:16:57.329Z,18.83
2019-05-19T04:19:25.725Z,22.27
2019-05-19T04:21:54.126Z,21.77
2019-05-19T04:24:22.535Z,18.40
2019-05-19T04:26:50.907Z,22.87
2019-05-19T04:29:19.296Z,19.73
2019-05-19T04:31:47.738Z,25.67
2019-05-19T04:34:16.128Z,23.47
2019-05-19T04:36:44.509Z,18.77
2019-05-19T04:39:12.926Z,20.57
2019-05-19T04:41:41.309Z,20.93
2019-05-19T04:44:09.709Z,20.27
2019-05-19T04:46:38.170Z,23.27
2019-05-19T04:49:06.537Z,20.37
2019-05-19T04:51:34.917Z,21.87
2019-05-19T04:54:03.338Z,20.10
2019-05-19T04:56:31.726Z,20.37
2019-05-19T04:59:00.109Z,22.67
2019-05-19T05:01:28.502Z,19.57
2019-05-19T05:03:56.911Z,22.13
2019-05-19T05:06:25.303Z,23.43
2019-05-19T05:08:53.725Z,24.57
2019-05-19T05:11:22.105Z,26.10
2019-05-19T05:13:50.507Z,20.97
2019-05-19T05:16:18.910Z,17.87
2019-05-19T05:18:47.916Z,17.57
2019-05-19T05:21:16.373Z,23.63
2019-05-19T05:23:44.768Z,20.87
2019-05-19T05:26:13.170Z,23.77
2019-05-19T05:28:41.557Z,17.30
2019-05-19T05:31:09.966Z,19.47
2019-05-19T05:33:38.357Z,19.23
2019-05-19T05:36:06.735Z,18.30
2019-05-19T05:38:35.187Z,20.30
2019-05-19T05:41:03.577Z,19.57
2019-05-19T05:43:31.975Z,19.00
2019-05-19T05:46:00.408Z,15.33
2019-05-19T05:48:28.780Z,18.60
2019-05-19T05:50:57.171Z,22.30
2019-05-19T05:53:25.568Z,18.60
2019-05-19T05:55:53.997Z,18.00
2019-05-19T05:58:22.433Z,13.20
2019-05-19T06:00:50.817Z,19.80
2019-05-19T06:03:19.204Z,16.97
2019-05-19T06:05:47.608Z,18.83
2019-05-19T06:08:16.175Z,12.47
2019-05-19T06:10:44.598Z,16.60
2019-05-19T06:13:13.009Z,19.57
2019-05-19T06:15:41.455Z,13.43
2019-05-19T06:18:09.834Z,14.17
2019-05-19T06:20:38.239Z,14.30
2019-05-19T06:23:06.671Z,11.57
2019-05-19T06:25:35.116Z,18.03
2019-05-19T06:28:03.481Z,13.57
2019-05-19T06:30:31.866Z,12.47
2019-05-19T06:33:01.645Z,11.70
2019-05-19T06:35:30.029Z,13.57
2019-05-19T06:37:58.409Z,17.83
2019-05-19T06:40:26.796Z,13.73
2019-05-19T06:42:55.167Z,12.03
2019-05-19T06:45:23.637Z,15.50
2019-05-19T06:47:52.084Z,16.60
2019-05-19T06:50:20.484Z,14.20
2019-05-19T06:52:48.885Z,19.23
2019-05-19T06:55:17.273Z,16.83
2019-05-19T06:57:45.679Z,13.27
2019-05-19T07:00:14.133Z,13.87
2019-05-19T07:02:42.530Z,16.47
2019-05-19T07:05:10.909Z,13.17
2019-05-19T07:07:39.286Z,12.37
2019-05-19T07:10:08.001Z,11.90
2019-05-19T07:12:36.390Z,10.67
2019-05-19T07:15:05.918Z,15.47
2019-05-19T07:17:34.304Z,12.03
2019-05-19T07:20:02.707Z,12.83
2019-05-19T07:22:31.102Z,14.10
2019-05-19T07:24:59.497Z,15.93
2019-05-19T07:27:27.879Z,13.50
2019-05-19T07:29:56.321Z,14.43
2019-05-19T07:32:24.680Z,12.10
2019-05-19T07:34:53.057Z,9.77
2019-05-19T07:37:21.468Z,11.30
2019-05-19T07:39:49.839Z,10.27
2019-05-19T07:42:18.238Z,15.00
2019-05-19T07:44:46.671Z,11.70
2019-05-19T07:47:15.052Z,20.17
2019-05-19T07:49:43.475Z,10.63
2019-05-19T07:52:11.889Z,12.77
2019-05-19T07:54:40.256Z,10.40
2019-05-19T07:57:08.637Z,10.53
2019-05-19T07:59:37.041Z,9.23
2019-05-19T08:02:05.420Z,10.07
2019-05-19T08:04:33.827Z,9.17
2019-05-19T08:07:02.216Z,11.90
2019-05-19T08:09:30.601Z,13.43
2019-05-19T08:11:58.994Z,11.70
2019-05-19T08:14:27.368Z,10.27
2019-05-19T08:16:55.745Z,15.27
2019-05-19T08:19:24.162Z,12.10
2019-05-19T08:21:52.951Z,10.10
2019-05-19T08:24:21.330Z,10.50
2019-05-19T08:26:49.761Z,12.23
2019-05-19T08:29:18.254Z,9.10
2019-05-19T08:31:46.673Z,13.63
2019-05-19T08:34:15.146Z,11.93
2019-05-19T08:36:43.538Z,11.23
2019-05-19T08:39:11.930Z,15.00
2019-05-19T08:41:40.361Z,8.33
2019-05-19T08:44:08.741Z,10.73
2019-05-19T08:46:37.129Z,12.03
2019-05-19T08:49:05.561Z,10.47
2019-05-19T08:51:34.115Z,9.17
2019-05-19T08:54:13.862Z,8.00
2019-05-19T08:56:32.571Z,9.60
2019-05-19T08:59:00.996Z,9.63
2019-05-19T09:01:29.407Z,8.43
2019-05-19T09:03:58.178Z,12.07
2019-05-19T09:06:26.993Z,12.03
2019-05-19T09:08:55.403Z,8.30
2019-05-19T09:11:23.848Z,9.13
2019-05-19T09:13:52.229Z,9.90
2019-05-19T09:16:20.601Z,7.43
2019-05-19T09:18:49.114Z,8.33
2019-05-19T09:21:17.557Z,10.13
2019-05-19T09:23:45.947Z,8.57
2019-05-19T09:26:14.355Z,8.37
2019-05-19T09:28:42.756Z,8.00
2019-05-19T09:31:11.142Z,9.87
2019-05-19T09:33:39.546Z,10.87
2019-05-19T09:36:07.944Z,6.87
2019-05-19T09:38:36.375Z,11.60
2019-05-19T09:41:05.163Z,9.87
2019-05-19T09:43:33.549Z,10.13
2019-05-19T09:46:01.944Z,8.67
2019-05-19T09:48:30.367Z,10.43
2019-05-19T09:50:58.755Z,10.80
2019-05-19T09:53:28.833Z,8.60
2019-05-19T09:55:57.241Z,9.70
2019-05-19T09:58:25.707Z,10.03
2019-05-19T10:00:54.168Z,7.57
2019-05-19T10:03:22.541Z,10.00
2019-05-19T10:05:50.959Z,10.17
2019-05-19T10:08:22.142Z,7.17
2019-05-19T10:11:03.315Z,9.40
2019-05-19T10:13:31.706Z,10.83
2019-05-19T10:16:00.083Z,9.47
2019-05-19T10:18:28.536Z,10.50
2019-05-19T10:20:56.931Z,8.93
2019-05-19T10:23:25.291Z,9.03
2019-05-19T10:25:53.711Z,9.73
2019-05-19T10:28:22.096Z,8.03
2019-05-19T10:30:50.517Z,9.93
2019-05-19T10:33:18.905Z,10.03
2019-05-19T10:35:47.283Z,9.27
2019-05-19T10:38:17.810Z,8.37
2019-05-19T10:40:46.378Z,12.40
2019-05-19T10:43:14.799Z,8.27
2019-05-19T10:45:44.821Z,11.03
2019-05-19T10:48:13.195Z,7.37
2019-05-19T10:50:41.629Z,10.00
2019-05-19T10:53:10.017Z,10.73
2019-05-19T10:55:38.391Z,7.07
2019-05-19T10:58:06.823Z,7.63
2019-05-19T11:00:38.186Z,7.27
2019-05-19T11:03:06.564Z,8.80
2019-05-19T11:05:35.019Z,8.90
2019-05-19T11:08:03.400Z,7.97
2019-05-19T11:10:31.859Z,9.53
2019-05-19T11:13:00.416Z,9.93
2019-05-19T11:15:28.807Z,12.10
2019-05-19T11:17:57.221Z,9.57
2019-05-19T11:20:25.638Z,8.03
2019-05-19T11:22:54.027Z,8.43
2019-05-19T11:25:33.336Z,7.73
2019-05-19T11:27:52.495Z,8.83
2019-05-19T11:30:20.966Z,6.20
2019-05-19T11:32:49.370Z,8.80
2019-05-19T11:35:19.484Z,8.63
2019-05-19T11:37:47.929Z,7.17
2019-05-19T11:40:16.310Z,8.80
2019-05-19T11:42:46.834Z,6.80
2019-05-19T11:45:14.902Z,11.40
2019-05-19T11:47:43.325Z,9.93
2019-05-19T11:50:11.719Z,7.30
2019-05-19T11:52:40.147Z,6.33
2019-05-19T11:55:08.606Z,7.77
2019-05-19T11:57:37.012Z,8.97
2019-05-19T12:00:06.619Z,8.23
2019-05-19T12:02:35.065Z,9.40
2019-05-19T12:05:04.247Z,6.67
2019-05-19T12:07:32.707Z,13.60
2019-05-19T12:10:01.190Z,6.57
2019-05-19T12:12:29.572Z,9.37
2019-05-19T12:14:57.960Z,13.43
2019-05-19T12:17:26.385Z,9.20
2019-05-19T12:19:54.755Z,8.33
2019-05-19T12:22:23.164Z,8.57
2019-05-19T12:24:51.601Z,10.20
2019-05-19T12:27:19.986Z,11.47
2019-05-19T12:29:48.407Z,12.40
2019-05-19T12:32:16.834Z,8.10
2019-05-19T12:34:45.285Z,11.03
2019-05-19T12:37:13.682Z,8.00
2019-05-19T12:39:42.092Z,8.97
2019-05-19T12:42:10.507Z,8.17
2019-05-19T12:44:38.940Z,9.77
2019-05-19T12:47:07.344Z,11.43
2019-05-19T12:49:35.767Z,14.20
2019-05-19T12:52:04.183Z,8.77
2019-05-19T12:54:32.636Z,9.60
2019-05-19T12:57:01.013Z,8.50
2019-05-19T12:59:29.442Z,8.60
2019-05-19T13:01:57.904Z,7.73
2019-05-19T13:04:26.277Z,6.33
2019-05-19T13:06:54.705Z,7.53
2019-05-19T13:09:23.087Z,8.00
2019-05-19T13:11:51.526Z,10.03
2019-05-19T13:14:20.057Z,8.20
2019-05-19T13:16:48.446Z,11.40
2019-05-19T13:19:16.869Z,7.50
2019-05-19T13:21:45.242Z,9.10
2019-05-19T13:24:13.645Z,8.33
2019-05-19T13:26:55.546Z,5.95
2019-05-19T13:29:12.103Z,7.90
2019-05-19T13:31:40.489Z,9.65
2019-05-19T13:34:08.885Z,4.70
2019-05-19T13:36:40.180Z,9.25
2019-05-19T13:39:07.533Z,7.83
2019-05-19T13:41:35.911Z,8.08
2019-05-19T13:44:04.392Z,8.20
2019-05-19T13:46:32.852Z,9.33
2019-05-19T13:49:01.239Z,5.90
2019-05-19T13:51:29.622Z,6.97
2019-05-19T13:53:58.037Z,6.62
2019-05-19T13:56:26.415Z,5.53
2019-05-19T13:58:54.795Z,8.50
2019-05-19T14:01:28.742Z,6.10
2019-05-19T14:03:53.271Z,7.20
2019-05-19T14:06:21.649Z,6.30
2019-05-19T14:08:50.075Z,5.28
2019-05-19T14:11:18.515Z,7.42
2019-05-19T14:13:46.908Z,11.18
2019-05-19T14:16:15.348Z,5.92
2019-05-19T14:18:43.731Z,4.33
2019-05-19T14:21:12.128Z,7.75
2019-05-19T14:23:40.596Z,3.87
2019-05-19T14:26:09.175Z,5.85
2019-05-19T14:28:37.563Z,6.47
2019-05-19T14:31:06.006Z,3.92
2019-05-19T14:33:34.402Z,6.72
2019-05-19T14:36:02.827Z,6.42
2019-05-19T14:38:31.188Z,5.28
2019-05-19T14:41:01.222Z,4.47
2019-05-19T14:43:31.031Z,4.15
2019-05-19T14:45:59.465Z,10.85
2019-05-19T14:48:27.874Z,5.15
2019-05-19T14:50:56.259Z,5.22
2019-05-19T14:53:24.810Z,5.37
2019-05-19T14:55:54.764Z,7.58
2019-05-19T14:58:24.995Z,5.28
2019-05-19T15:00:56.069Z,6.22
2019-05-19T15:03:24.510Z,9.60
2019-05-19T15:05:52.952Z,9.45
2019-05-19T15:08:21.345Z,9.05
2019-05-19T15:10:49.731Z,6.87
2019-05-19T15:13:22.547Z,11.28
2019-05-19T15:15:57.935Z,6.75
2019-05-19T15:18:24.640Z,8.95
2019-05-19T15:20:53.027Z,12.15
2019-05-19T15:23:21.433Z,8.13
2019-05-19T15:25:49.854Z,8.95
2019-05-19T15:28:18.305Z,11.70
2019-05-19T15:30:46.683Z,9.85
2019-05-19T15:33:17.831Z,14.85
2019-05-19T15:35:46.247Z,8.77
2019-05-19T15:38:14.627Z,11.90
2019-05-19T15:40:43.046Z,8.27
2019-05-19T15:43:11.427Z,9.75
2019-05-19T15:45:39.842Z,8.90
2019-05-19T15:48:08.280Z,11.28
2019-05-19T15:50:36.659Z,7.67
2019-05-19T15:53:05.049Z,11.10
2019-05-19T15:55:33.480Z,12.00
2019-05-19T15:58:15.616Z,11.50
2019-05-19T16:00:31.891Z,8.20
2019-05-19T16:03:00.279Z,6.90
2019-05-19T16:05:28.676Z,8.77
2019-05-19T16:07:57.139Z,8.97
2019-05-19T16:10:25.635Z,9.67
2019-05-19T16:12:54.034Z,13.03
2019-05-19T16:15:22.538Z,6.77
2019-05-19T16:17:50.947Z,8.50
2019-05-19T16:20:19.435Z,7.67
2019-05-19T16:22:47.779Z,11.77
2019-05-19T16:25:16.444Z,13.40
2019-05-19T16:27:44.989Z,9.30
2019-05-19T16:30:13.468Z,14.13
2019-05-19T16:32:41.849Z,8.20
2019-05-19T16:35:10.629Z,15.07
2019-05-19T16:37:39.103Z,8.07
2019-05-19T16:40:07.520Z,7.73
2019-05-19T16:42:35.923Z,10.70
2019-05-19T16:45:07.467Z,7.13
2019-05-19T16:47:36.058Z,5.73
2019-05-19T16:50:05.905Z,9.17
2019-05-19T16:52:34.879Z,8.10
2019-05-19T16:55:20.741Z,7.93
2019-05-19T16:57:49.120Z,8.83
2019-05-19T17:00:17.665Z,11.17
2019-05-19T17:02:46.106Z,9.27
2019-05-19T17:05:17.369Z,13.43
2019-05-19T17:07:45.830Z,10.97
2019-05-19T17:10:14.467Z,9.77
2019-05-19T17:12:43.207Z,6.57
2019-05-19T17:15:11.614Z,14.03
2019-05-19T17:17:40.149Z,11.67
2019-05-19T17:20:08.527Z,10.33
2019-05-19T17:22:36.915Z,9.27
2019-05-19T17:25:06.576Z,9.10
2019-05-19T17:27:34.965Z,9.57
2019-05-19T17:30:05.379Z,14.07
2019-05-19T17:32:33.763Z,7.10
2019-05-19T17:35:02.195Z,8.43
2019-05-19T17:37:30.589Z,10.17
2019-05-19T17:39:58.963Z,8.37
2019-05-19T17:42:27.422Z,11.23
2019-05-19T17:44:55.805Z,10.90
2019-05-19T17:47:24.227Z,10.77
2019-05-19T17:49:52.807Z,8.60
2019-05-19T17:52:21.339Z,10.70
2019-05-19T17:54:49.731Z,10.07
2019-05-19T17:57:18.190Z,10.07
2019-05-19T17:59:48.122Z,13.37
2019-05-19T18:02:16.540Z,9.33
2019-05-19T18:04:44.951Z,9.77
2019-05-19T18:07:13.379Z,11.67
2019-05-19T18:09:41.783Z,12.03
2019-05-19T18:12:10.199Z,14.03
2019-05-19T18:14:38.608Z,11.30
2019-05-19T18:17:07.119Z,9.50
2019-05-19T18:19:35.547Z,15.00
2019-05-19T18:22:03.969Z,12.43
2019-05-19T18:24:32.351Z,12.57
2019-05-19T18:27:01.220Z,10.70
2019-05-19T18:29:31.666Z,18.03
2019-05-19T18:31:59.592Z,9.80
2019-05-19T18:34:28.081Z,12.33
2019-05-19T18:36:56.473Z,16.33
2019-05-19T18:39:24.894Z,11.77
2019-05-19T18:41:53.300Z,17.53
2019-05-19T18:44:21.701Z,11.60
2019-05-19T18:46:50.139Z,15.07
2019-05-19T18:49:18.571Z,20.70
2019-05-19T18:51:46.986Z,12.13
2019-05-19T18:54:15.388Z,14.77
2019-05-19T18:56:43.804Z,12.60
2019-05-19T18:59:12.175Z,10.77
2019-05-19T19:01:40.586Z,13.20
2019-05-19T19:04:09.036Z,12.63
2019-05-19T19:06:37.430Z,12.73
2019-05-19T19:09:06.283Z,15.40
2019-05-19T19:11:34.783Z,11.80
2019-05-19T19:14:04.091Z,15.70
2019-05-19T19:16:32.633Z,13.43
2019-05-19T19:19:01.046Z,13.33
2019-05-19T19:21:29.441Z,13.53
2019-05-19T19:23:57.947Z,16.73
2019-05-19T19:26:26.400Z,14.50
2019-05-19T19:28:54.858Z,13.83
2019-05-19T19:31:23.320Z,15.40
2019-05-19T19:33:51.734Z,19.87
2019-05-19T19:36:20.136Z,16.23
2019-05-19T19:38:48.536Z,15.77
2019-05-19T19:41:16.929Z,15.87
2019-05-19T19:43:45.386Z,12.83
2019-05-19T19:46:13.765Z,11.93
2019-05-19T19:48:42.206Z,17.67
2019-05-19T19:51:10.574Z,15.03
2019-05-19T19:53:38.947Z,14.93
2019-05-19T19:56:07.393Z,16.37
2019-05-19T19:58:35.822Z,16.43
2019-05-19T20:01:04.224Z,15.30
2019-05-19T20:03:32.760Z,17.37
2019-05-19T20:06:01.133Z,18.53
2019-05-19T20:08:29.527Z,22.47
2019-05-19T20:10:57.928Z,17.07
2019-05-19T20:13:26.325Z,14.67
2019-05-19T20:15:54.725Z,21.27
2019-05-19T20:18:23.169Z,21.27
2019-05-19T20:20:51.558Z,16.77
2019-05-19T20:23:20.036Z,24.87
2019-05-19T20:25:48.449Z,16.33
2019-05-19T20:28:16.838Z,18.70
2019-05-19T20:30:45.222Z,20.83
2019-05-19T20:33:13.663Z,15.63
2019-05-19T20:35:42.036Z,19.67
2019-05-19T20:38:10.486Z,17.50
2019-05-19T20:40:38.864Z,17.07
2019-05-19T20:43:07.276Z,13.10
2019-05-19T20:45:35.754Z,16.47
2019-05-19T20:48:04.126Z,19.20
2019-05-19T20:50:32.545Z,14.93
2019-05-19T20:53:00.990Z,17.67
2019-05-19T20:55:29.387Z,13.23
2019-05-19T20:57:57.873Z,16.70
2019-05-19T21:00:26.543Z,14.63
2019-05-19T21:02:54.956Z,12.87
2019-05-19T21:05:23.436Z,20.90
2019-05-19T21:07:51.907Z,14.20
2019-05-19T21:10:20.324Z,18.83
2019-05-19T21:12:48.781Z,19.80
2019-05-19T21:15:17.230Z,15.40
2019-05-19T21:17:45.634Z,18.70
2019-05-19T21:20:14.176Z,16.17
2019-05-19T21:22:42.716Z,14.10
2019-05-19T21:25:11.093Z,17.20
2019-05-19T21:27:39.638Z,13.33
2019-05-19T21:30:08.051Z,17.70
2019-05-19T21:32:36.433Z,18.67
2019-05-19T21:35:06.136Z,16.27
2019-05-19T21:37:34.529Z,14.50
2019-05-19T21:40:02.995Z,16.53
2019-05-19T21:42:31.412Z,14.00
2019-05-19T21:44:59.796Z,11.17
2019-05-19T21:47:28.175Z,18.50
2019-05-19T21:49:56.696Z,16.13
2019-05-19T21:52:25.087Z,16.83
2019-05-19T21:54:53.468Z,13.63
2019-05-19T21:57:21.850Z,14.73
2019-05-19T21:59:50.520Z,12.90
2019-05-19T22:02:18.908Z,13.00
2019-05-19T22:04:47.371Z,11.70
2019-05-19T22:07:17.416Z,11.57
2019-05-19T22:09:45.867Z,10.33
2019-05-19T22:12:14.271Z,15.60
2019-05-19T22:14:42.685Z,10.43
2019-05-19T22:17:11.127Z,13.47
2019-05-19T22:19:39.636Z,11.33
2019-05-19T22:22:08.040Z,12.50
2019-05-19T22:24:36.489Z,18.73
2019-05-19T22:27:04.866Z,16.90
2019-05-19T22:29:33.460Z,13.53
2019-05-19T22:32:02.083Z,15.07
2019-05-19T22:34:30.436Z,14.10
2019-05-19T22:36:58.853Z,12.50
2019-05-19T22:39:27.367Z,12.40
2019-05-19T22:41:55.745Z,16.67
2019-05-19T22:44:24.166Z,10.67
2019-05-19T22:46:52.543Z,11.37
2019-05-19T22:49:20.926Z,17.37
2019-05-19T22:51:49.312Z,13.60
2019-05-19T22:54:17.668Z,12.87
2019-05-19T22:56:46.078Z,11.60
2019-05-19T22:59:19.826Z,11.80
2019-05-19T23:01:51.721Z,14.13
2019-05-19T23:04:14.621Z,14.83
2019-05-19T23:06:43.040Z,12.90
2019-05-19T23:09:11.424Z,13.67
2019-05-19T23:11:39.788Z,12.17
2019-05-19T23:14:08.271Z,16.00
2019-05-19T23:16:36.650Z,12.60
2019-05-19T23:19:05.027Z,11.80
2019-05-19T23:21:34.523Z,10.40
2019-05-19T23:24:03.356Z,14.63
2019-05-19T23:26:31.840Z,13.70
2019-05-19T23:29:00.262Z,13.70
2019-05-19T23:31:28.712Z,13.57
2019-05-19T23:34:00.536Z,9.83
2019-05-19T23:36:28.846Z,14.43
2019-05-19T23:38:57.234Z,15.80
2019-05-19T23:41:25.662Z,17.43
2019-05-19T23:43:54.040Z,12.33
2019-05-19T23:46:22.417Z,11.20
2019-05-19T23:48:50.832Z,10.77
2019-05-19T23:51:19.211Z,15.23
2019-05-19T23:53:47.623Z,14.03
2019-05-19T23:56:15.930Z,15.97
2019-05-19T23:58:44.291Z,12.80
